sensor_id;sensor_type;location;lat;lon;timestamp;pressure;altitude;pressure_sealevel;temperature;humidity
788;BME280;16074;42.708;23.312;2023-04-05T00:01:12;138492.78;;;0.73;100.00
788;BME280;16074;42.708;23.312;2023-04-05T00:03:41;138532.13;;;0.89;100.00
788;BME280;16074;42.708;23.312;2023-04-05T00:06:10;138523.78;;;0.86;100.00
788;BME280;16074;42.708;23.312;2023-04-05T00:08:39;138535.72;;;0.91;100.00
788;BME280;16074;42.708;23.312;2023-04-05T00:11:07;138516.63;;;0.83;100.00
788;BME280;16074;42.708;23.312;2023-04-05T00:13:35;138520.25;;;0.84;100.00
788;BME280;16074;42.708;23.312;2023-04-05T00:16:04;138508.31;;;0.79;100.00
788;BME280;16074;42.708;23.312;2023-04-05T00:18:33;138507.09;;;0.79;100.00
788;BME280;16074;42.708;23.312;2023-04-05T00:21:06;138514.25;;;0.82;100.00
788;BME280;16074;42.708;23.312;2023-04-05T00:23:34;138514.25;;;0.82;100.00
788;BME280;16074;42.708;23.312;2023-04-05T00:26:06;138534.50;;;0.90;100.00
788;BME280;16074;42.708;23.312;2023-04-05T00:28:35;138526.19;;;0.87;100.00
788;BME280;16074;42.708;23.312;2023-04-05T00:31:04;138502.31;;;0.77;100.00
788;BME280;16074;42.708;23.312;2023-04-05T00:33:32;138492.78;;;0.73;100.00
788;BME280;16074;42.708;23.312;2023-04-05T00:36:12;138499.94;;;0.76;100.00
788;BME280;16074;42.708;23.312;2023-04-05T00:38:42;138496.38;;;0.74;100.00
788;BME280;16074;42.708;23.312;2023-04-05T00:41:13;138508.31;;;0.79;100.00
788;BME280;16074;42.708;23.312;2023-04-05T00:43:41;138504.72;;;0.78;100.00
788;BME280;16074;42.708;23.312;2023-04-05T00:46:10;138495.16;;;0.74;100.00
788;BME280;16074;42.708;23.312;2023-04-05T00:48:39;138503.53;;;0.77;100.00
788;BME280;16074;42.708;23.312;2023-04-05T00:51:10;138488.00;;;0.71;100.00
788;BME280;16074;42.708;23.312;2023-04-05T00:53:39;138502.31;;;0.77;100.00
788;BME280;16074;42.708;23.312;2023-04-05T00:56:09;138515.47;;;0.82;100.00
788;BME280;16074;42.708;23.312;2023-04-05T00:58:39;138507.09;;;0.79;100.00
788;BME280;16074;42.708;23.312;2023-04-05T01:01:12;138466.53;;;0.62;100.00
788;BME280;16074;42.708;23.312;2023-04-05T01:03:45;138480.84;;;0.68;100.00
788;BME280;16074;42.708;23.312;2023-04-05T01:06:23;138491.63;;;0.72;100.00
788;BME280;16074;42.708;23.312;2023-04-05T01:09:00;138496.38;;;0.74;100.00
788;BME280;16074;42.708;23.312;2023-04-05T01:11:32;138522.59;;;0.85;100.00
788;BME280;16074;42.708;23.312;2023-04-05T01:14:01;138497.56;;;0.75;100.00
788;BME280;16074;42.708;23.312;2023-04-05T01:16:29;138513.09;;;0.81;100.00
788;BME280;16074;42.708;23.312;2023-04-05T01:18:58;138529.75;;;0.88;100.00
788;BME280;16074;42.708;23.312;2023-04-05T01:21:56;138527.34;;;0.87;100.00
788;BME280;16074;42.708;23.312;2023-04-05T01:24:52;138523.78;;;0.86;100.00
788;BME280;16074;42.708;23.312;2023-04-05T01:27:30;138530.97;;;0.89;100.00
788;BME280;16074;42.708;23.312;2023-04-05T01:30:08;138520.25;;;0.84;100.00
788;BME280;16074;42.708;23.312;2023-04-05T01:32:46;138522.59;;;0.85;100.00
788;BME280;16074;42.708;23.312;2023-04-05T01:35:24;138509.47;;;0.80;100.00
788;BME280;16074;42.708;23.312;2023-04-05T01:37:59;138507.09;;;0.79;100.00
788;BME280;16074;42.708;23.312;2023-04-05T01:40:29;138492.78;;;0.73;100.00
788;BME280;16074;42.708;23.312;2023-04-05T01:43:00;138490.41;;;0.72;100.00
788;BME280;16074;42.708;23.312;2023-04-05T01:45:30;138503.53;;;0.77;100.00
788;BME280;16074;42.708;23.312;2023-04-05T01:47:58;138504.72;;;0.78;100.00
788;BME280;16074;42.708;23.312;2023-04-05T01:50:26;138515.47;;;0.82;100.00
788;BME280;16074;42.708;23.312;2023-04-05T01:52:55;138545.28;;;0.95;100.00
788;BME280;16074;42.708;23.312;2023-04-05T01:55:23;138547.66;;;0.96;100.00
788;BME280;16074;42.708;23.312;2023-04-05T01:57:54;138540.50;;;0.93;100.00
788;BME280;16074;42.708;23.312;2023-04-05T02:00:23;138526.19;;;0.87;100.00
788;BME280;16074;42.708;23.312;2023-04-05T02:02:52;138514.25;;;0.82;100.00
788;BME280;16074;42.708;23.312;2023-04-05T02:05:21;138551.22;;;0.97;100.00
788;BME280;16074;42.708;23.312;2023-04-05T02:07:49;138555.97;;;0.99;100.00
788;BME280;16074;42.708;23.312;2023-04-05T02:10:18;138559.59;;;1.01;100.00
788;BME280;16074;42.708;23.312;2023-04-05T02:12:46;138570.31;;;1.05;100.00
788;BME280;16074;42.708;23.312;2023-04-05T02:15:14;138557.19;;;1.00;100.00
788;BME280;16074;42.708;23.312;2023-04-05T02:17:43;138547.66;;;0.96;100.00
788;BME280;16074;42.708;23.312;2023-04-05T02:20:14;138545.28;;;0.95;100.00
788;BME280;16074;42.708;23.312;2023-04-05T02:22:44;138548.81;;;0.96;100.00
788;BME280;16074;42.708;23.312;2023-04-05T02:25:12;138548.81;;;0.96;100.00
788;BME280;16074;42.708;23.312;2023-04-05T02:27:41;138579.84;;;1.09;100.00
788;BME280;16074;42.708;23.312;2023-04-05T02:30:10;138567.91;;;1.04;100.00
788;BME280;16074;42.708;23.312;2023-04-05T02:32:41;138529.75;;;0.88;100.00
788;BME280;16074;42.708;23.312;2023-04-05T02:35:10;138534.50;;;0.90;100.00
788;BME280;16074;42.708;23.312;2023-04-05T02:37:40;138544.06;;;0.94;100.00
788;BME280;16074;42.708;23.312;2023-04-05T02:40:11;138522.59;;;0.85;100.00
788;BME280;16074;42.708;23.312;2023-04-05T02:42:40;138539.28;;;0.92;100.00
788;BME280;16074;42.708;23.312;2023-04-05T02:45:09;138534.50;;;0.90;100.00
788;BME280;16074;42.708;23.312;2023-04-05T02:47:38;138532.13;;;0.89;100.00
788;BME280;16074;42.708;23.312;2023-04-05T02:50:07;138530.97;;;0.89;100.00
788;BME280;16074;42.708;23.312;2023-04-05T02:52:42;138548.81;;;0.96;100.00
788;BME280;16074;42.708;23.312;2023-04-05T02:55:10;138529.75;;;0.88;100.00
788;BME280;16074;42.708;23.312;2023-04-05T02:57:38;138527.34;;;0.87;100.00
788;BME280;16074;42.708;23.312;2023-04-05T03:00:20;138546.44;;;0.95;100.00
788;BME280;16074;42.708;23.312;2023-04-05T03:02:51;138536.91;;;0.91;100.00
788;BME280;16074;42.708;23.312;2023-04-05T03:05:20;138547.66;;;0.96;100.00
788;BME280;16074;42.708;23.312;2023-04-05T03:07:53;138559.59;;;1.01;100.00
788;BME280;16074;42.708;23.312;2023-04-05T03:10:26;138547.66;;;0.96;100.00
788;BME280;16074;42.708;23.312;2023-04-05T03:13:02;138553.59;;;0.98;100.00
788;BME280;16074;42.708;23.312;2023-04-05T03:15:31;138527.34;;;0.87;100.00
788;BME280;16074;42.708;23.312;2023-04-05T03:18:06;138532.13;;;0.89;100.00
788;BME280;16074;42.708;23.312;2023-04-05T03:20:35;138545.28;;;0.95;100.00
788;BME280;16074;42.708;23.312;2023-04-05T03:23:15;138521.41;;;0.85;100.00
788;BME280;16074;42.708;23.312;2023-04-05T03:25:45;138526.19;;;0.87;100.00
788;BME280;16074;42.708;23.312;2023-04-05T03:28:17;138523.78;;;0.86;100.00
788;BME280;16074;42.708;23.312;2023-04-05T03:30:51;138530.97;;;0.89;100.00
788;BME280;16074;42.708;23.312;2023-04-05T03:33:22;138532.13;;;0.89;100.00
788;BME280;16074;42.708;23.312;2023-04-05T03:35:53;138514.25;;;0.82;100.00
788;BME280;16074;42.708;23.312;2023-04-05T03:38:24;138521.41;;;0.85;100.00
788;BME280;16074;42.708;23.312;2023-04-05T03:41:10;138517.84;;;0.83;100.00
788;BME280;16074;42.708;23.312;2023-04-05T03:43:40;138511.88;;;0.81;100.00
788;BME280;16074;42.708;23.312;2023-04-05T03:46:11;138529.75;;;0.88;100.00
788;BME280;16074;42.708;23.312;2023-04-05T03:48:42;138522.59;;;0.85;100.00
788;BME280;16074;42.708;23.312;2023-04-05T03:51:10;138533.34;;;0.90;100.00
788;BME280;16074;42.708;23.312;2023-04-05T03:53:40;138541.66;;;0.93;100.00
788;BME280;16074;42.708;23.312;2023-04-05T03:56:08;138534.50;;;0.90;100.00
788;BME280;16074;42.708;23.312;2023-04-05T03:58:46;138508.31;;;0.79;100.00
788;BME280;16074;42.708;23.312;2023-04-05T04:01:20;138524.97;;;0.86;100.00
788;BME280;16074;42.708;23.312;2023-04-05T04:03:49;138514.25;;;0.82;100.00
788;BME280;16074;42.708;23.312;2023-04-05T04:06:17;138508.31;;;0.79;100.00
788;BME280;16074;42.708;23.312;2023-04-05T04:08:48;138517.84;;;0.83;100.00
788;BME280;16074;42.708;23.312;2023-04-05T04:11:16;138510.69;;;0.80;100.00
788;BME280;16074;42.708;23.312;2023-04-05T04:13:45;138526.19;;;0.87;100.00
788;BME280;16074;42.708;23.312;2023-04-05T04:16:22;138515.47;;;0.82;100.00
788;BME280;16074;42.708;23.312;2023-04-05T04:19:00;138535.72;;;0.91;100.00
788;BME280;16074;42.708;23.312;2023-04-05T04:21:57;138550.03;;;0.97;100.00
788;BME280;16074;42.708;23.312;2023-04-05T04:24:45;138536.91;;;0.91;100.00
788;BME280;16074;42.708;23.312;2023-04-05T04:27:42;138533.34;;;0.90;100.00
788;BME280;16074;42.708;23.312;2023-04-05T04:30:29;138551.22;;;0.97;100.00
788;BME280;16074;42.708;23.312;2023-04-05T04:33:32;138554.81;;;0.99;100.00
788;BME280;16074;42.708;23.312;2023-04-05T04:36:17;138524.97;;;0.86;100.00
788;BME280;16074;42.708;23.312;2023-04-05T04:39:33;138536.91;;;0.91;100.00
788;BME280;16074;42.708;23.312;2023-04-05T04:42:20;138521.41;;;0.85;100.00
788;BME280;16074;42.708;23.312;2023-04-05T04:45:12;138539.28;;;0.92;100.00
788;BME280;16074;42.708;23.312;2023-04-05T04:47:47;138558.38;;;1.00;100.00
788;BME280;16074;42.708;23.312;2023-04-05T04:50:45;138546.44;;;0.95;100.00
788;BME280;16074;42.708;23.312;2023-04-05T04:53:14;138571.53;;;1.06;100.00
788;BME280;16074;42.708;23.312;2023-04-05T04:55:43;138557.19;;;1.00;100.00
788;BME280;16074;42.708;23.312;2023-04-05T04:58:17;138546.44;;;0.95;100.00
788;BME280;16074;42.708;23.312;2023-04-05T05:00:53;138533.34;;;0.90;100.00
788;BME280;16074;42.708;23.312;2023-04-05T05:03:24;138551.22;;;0.97;100.00
788;BME280;16074;42.708;23.312;2023-04-05T05:05:52;138527.34;;;0.87;100.00
788;BME280;16074;42.708;23.312;2023-04-05T05:08:26;138532.13;;;0.89;100.00
788;BME280;16074;42.708;23.312;2023-04-05T05:10:55;138557.19;;;1.00;100.00
788;BME280;16074;42.708;23.312;2023-04-05T05:13:24;138548.81;;;0.96;100.00
788;BME280;16074;42.708;23.312;2023-04-05T05:15:53;138544.06;;;0.94;100.00
788;BME280;16074;42.708;23.312;2023-04-05T05:18:24;138573.91;;;1.07;100.00
788;BME280;16074;42.708;23.312;2023-04-05T05:20:52;138547.66;;;0.96;100.00
788;BME280;16074;42.708;23.312;2023-04-05T05:23:21;138567.91;;;1.04;100.00
788;BME280;16074;42.708;23.312;2023-04-05T05:25:49;138571.53;;;1.06;100.00
788;BME280;16074;42.708;23.312;2023-04-05T05:28:18;138573.91;;;1.07;100.00
788;BME280;16074;42.708;23.312;2023-04-05T05:30:47;138597.72;;;1.16;100.00
788;BME280;16074;42.708;23.312;2023-04-05T05:33:16;138595.34;;;1.15;100.00
788;BME280;16074;42.708;23.312;2023-04-05T05:35:47;138621.59;;;1.26;100.00
788;BME280;16074;42.708;23.312;2023-04-05T05:38:15;138645.47;;;1.36;100.00
788;BME280;16074;42.708;23.312;2023-04-05T05:40:43;138625.19;;;1.28;100.00
788;BME280;16074;42.708;23.312;2023-04-05T05:43:12;138660.97;;;1.43;100.00
788;BME280;16074;42.708;23.312;2023-04-05T05:45:41;138646.69;;;1.37;100.00
788;BME280;16074;42.708;23.312;2023-04-05T05:48:10;138632.34;;;1.31;100.00
788;BME280;16074;42.708;23.312;2023-04-05T05:50:39;138660.97;;;1.43;100.00
788;BME280;16074;42.708;23.312;2023-04-05T05:53:08;138686.06;;;1.53;100.00
788;BME280;16074;42.708;23.312;2023-04-05T05:55:36;138665.72;;;1.45;100.00
788;BME280;16074;42.708;23.312;2023-04-05T05:58:04;138678.88;;;1.50;100.00
788;BME280;16074;42.708;23.312;2023-04-05T06:00:33;138677.66;;;1.50;100.00
788;BME280;16074;42.708;23.312;2023-04-05T06:03:02;138708.72;;;1.63;100.00
788;BME280;16074;42.708;23.312;2023-04-05T06:05:31;138727.81;;;1.71;100.00
788;BME280;16074;42.708;23.312;2023-04-05T06:07:59;138731.38;;;1.72;100.00
788;BME280;16074;42.708;23.312;2023-04-05T06:10:29;138723.03;;;1.69;100.00
788;BME280;16074;42.708;23.312;2023-04-05T06:12:58;138734.97;;;1.74;100.00
788;BME280;16074;42.708;23.312;2023-04-05T06:15:26;138736.16;;;1.74;100.00
788;BME280;16074;42.708;23.312;2023-04-05T06:17:54;138760.03;;;1.84;100.00
788;BME280;16074;42.708;23.312;2023-04-05T06:20:22;138781.53;;;1.93;100.00
788;BME280;16074;42.708;23.312;2023-04-05T06:22:52;138738.53;;;1.75;100.00
788;BME280;16074;42.708;23.312;2023-04-05T06:25:20;138774.38;;;1.90;100.00
788;BME280;16074;42.708;23.312;2023-04-05T06:27:48;138808.97;;;2.05;100.00
788;BME280;16074;42.708;23.312;2023-04-05T06:30:16;138782.75;;;1.94;100.00
788;BME280;16074;42.708;23.312;2023-04-05T06:32:44;138791.09;;;1.97;100.00
788;BME280;16074;42.708;23.312;2023-04-05T06:35:14;138836.47;;;2.16;100.00
788;BME280;16074;42.708;23.312;2023-04-05T06:37:42;138854.38;;;2.24;100.00
788;BME280;16074;42.708;23.312;2023-04-05T06:40:12;138865.09;;;2.28;100.00
788;BME280;16074;42.708;23.312;2023-04-05T06:42:40;138880.66;;;2.34;100.00
788;BME280;16074;42.708;23.312;2023-04-05T06:45:13;138881.81;;;2.35;100.00
788;BME280;16074;42.708;23.312;2023-04-05T06:47:42;138912.88;;;2.48;100.00
788;BME280;16074;42.708;23.312;2023-04-05T06:50:10;138932.00;;;2.56;100.00
788;BME280;16074;42.708;23.312;2023-04-05T06:52:38;138978.59;;;2.75;100.00
788;BME280;16074;42.708;23.312;2023-04-05T06:55:07;139001.28;;;2.85;100.00
788;BME280;16074;42.708;23.312;2023-04-05T06:57:36;138996.56;;;2.83;100.00
788;BME280;16074;42.708;23.312;2023-04-05T07:00:06;138926.06;;;2.53;100.00
788;BME280;16074;42.708;23.312;2023-04-05T07:02:37;138924.84;;;2.53;100.00
788;BME280;16074;42.708;23.312;2023-04-05T07:05:05;138933.19;;;2.56;100.00
788;BME280;16074;42.708;23.312;2023-04-05T07:07:38;138955.91;;;2.66;100.00
788;BME280;16074;42.708;23.312;2023-04-05T07:10:07;138984.59;;;2.78;100.00
788;BME280;16074;42.708;23.312;2023-04-05T07:12:38;138983.38;;;2.77;100.00
788;BME280;16074;42.708;23.312;2023-04-05T07:15:07;138940.34;;;2.59;100.00
788;BME280;16074;42.708;23.312;2023-04-05T07:17:35;138963.09;;;2.69;100.00
788;BME280;16074;42.708;23.312;2023-04-05T07:20:04;138995.34;;;2.82;100.00
788;BME280;16074;42.708;23.312;2023-04-05T07:22:33;138991.78;;;2.81;100.00
788;BME280;16074;42.708;23.312;2023-04-05T07:25:02;138990.56;;;2.80;100.00
788;BME280;16074;42.708;23.312;2023-04-05T07:27:31;139009.69;;;2.88;100.00
788;BME280;16074;42.708;23.312;2023-04-05T07:30:02;139022.81;;;2.94;100.00
788;BME280;16074;42.708;23.312;2023-04-05T07:32:31;139016.84;;;2.91;100.00
788;BME280;16074;42.708;23.312;2023-04-05T07:34:59;139077.81;;;3.17;100.00
788;BME280;16074;42.708;23.312;2023-04-05T07:37:27;139067.03;;;3.12;100.00
788;BME280;16074;42.708;23.312;2023-04-05T07:39:55;139080.19;;;3.18;100.00
788;BME280;16074;42.708;23.312;2023-04-05T07:42:24;139102.91;;;3.27;100.00
788;BME280;16074;42.708;23.312;2023-04-05T07:44:53;139092.16;;;3.23;99.75
788;BME280;16074;42.708;23.312;2023-04-05T07:47:23;139064.69;;;3.11;98.19
788;BME280;16074;42.708;23.312;2023-04-05T07:49:51;139001.28;;;2.85;99.56
788;BME280;16074;42.708;23.312;2023-04-05T07:52:19;139037.16;;;3.00;100.00
788;BME280;16074;42.708;23.312;2023-04-05T07:54:47;139063.47;;;3.11;100.00
788;BME280;16074;42.708;23.312;2023-04-05T07:57:16;139038.38;;;3.00;98.75
788;BME280;16074;42.708;23.312;2023-04-05T07:59:44;139039.53;;;3.01;98.60
788;BME280;16074;42.708;23.312;2023-04-05T08:02:13;139027.59;;;2.96;98.09
788;BME280;16074;42.708;23.312;2023-04-05T08:04:43;139004.91;;;2.86;98.66
788;BME280;16074;42.708;23.312;2023-04-05T08:07:11;138988.16;;;2.79;98.39
788;BME280;16074;42.708;23.312;2023-04-05T08:09:40;138945.13;;;2.61;99.31
788;BME280;16074;42.708;23.312;2023-04-05T08:12:08;139022.81;;;2.94;100.00
788;BME280;16074;42.708;23.312;2023-04-05T08:14:37;139004.91;;;2.86;99.54
788;BME280;16074;42.708;23.312;2023-04-05T08:17:05;139031.19;;;2.97;99.86
788;BME280;16074;42.708;23.312;2023-04-05T08:19:33;139021.63;;;2.93;99.93
788;BME280;16074;42.708;23.312;2023-04-05T08:22:03;138976.22;;;2.74;100.00
788;BME280;16074;42.708;23.312;2023-04-05T08:24:31;138981.00;;;2.76;100.00
788;BME280;16074;42.708;23.312;2023-04-05T08:26:59;139010.84;;;2.89;100.00
788;BME280;16074;42.708;23.312;2023-04-05T08:29:27;139001.28;;;2.85;100.00
788;BME280;16074;42.708;23.312;2023-04-05T08:31:56;139056.28;;;3.08;100.00
788;BME280;16074;42.708;23.312;2023-04-05T08:34:25;139044.31;;;3.03;100.00
788;BME280;16074;42.708;23.312;2023-04-05T08:36:57;139039.53;;;3.01;100.00
788;BME280;16074;42.708;23.312;2023-04-05T08:39:26;139087.38;;;3.21;100.00
788;BME280;16074;42.708;23.312;2023-04-05T08:41:59;139055.13;;;3.07;99.23
788;BME280;16074;42.708;23.312;2023-04-05T08:44:30;139077.81;;;3.17;98.88
788;BME280;16074;42.708;23.312;2023-04-05T08:46:59;139096.94;;;3.25;99.94
788;BME280;16074;42.708;23.312;2023-04-05T08:49:27;139123.25;;;3.36;100.00
788;BME280;16074;42.708;23.312;2023-04-05T08:51:58;139119.63;;;3.34;100.00
788;BME280;16074;42.708;23.312;2023-04-05T08:54:28;139094.56;;;3.24;100.00
788;BME280;16074;42.708;23.312;2023-04-05T08:56:57;139131.59;;;3.39;100.00
788;BME280;16074;42.708;23.312;2023-04-05T08:59:27;139118.47;;;3.34;100.00
788;BME280;16074;42.708;23.312;2023-04-05T09:01:56;139107.69;;;3.29;100.00
788;BME280;16074;42.708;23.312;2023-04-05T09:04:30;139117.25;;;3.33;100.00
788;BME280;16074;42.708;23.312;2023-04-05T09:07:00;139071.81;;;3.14;100.00
788;BME280;16074;42.708;23.312;2023-04-05T09:09:34;138984.59;;;2.78;100.00
788;BME280;16074;42.708;23.312;2023-04-05T09:12:05;138995.34;;;2.82;100.00
788;BME280;16074;42.708;23.312;2023-04-05T09:14:35;139031.19;;;2.97;100.00
788;BME280;16074;42.708;23.312;2023-04-05T09:17:05;139056.28;;;3.08;100.00
788;BME280;16074;42.708;23.312;2023-04-05T09:19:33;139114.84;;;3.32;100.00
788;BME280;16074;42.708;23.312;2023-04-05T09:22:02;139150.75;;;3.47;100.00
788;BME280;16074;42.708;23.312;2023-04-05T09:24:40;139218.91;;;3.75;100.00
788;BME280;16074;42.708;23.312;2023-04-05T09:27:10;139234.44;;;3.82;98.34
788;BME280;16074;42.708;23.312;2023-04-05T09:29:39;139284.69;;;4.03;97.99
788;BME280;16074;42.708;23.312;2023-04-05T09:32:10;139311.03;;;4.14;93.08
788;BME280;16074;42.708;23.312;2023-04-05T09:34:39;139306.25;;;4.12;90.84
788;BME280;16074;42.708;23.312;2023-04-05T09:37:15;139269.16;;;3.96;90.28
788;BME280;16074;42.708;23.312;2023-04-05T09:39:47;139247.63;;;3.87;91.30
788;BME280;16074;42.708;23.312;2023-04-05T09:42:18;139232.03;;;3.81;92.47
788;BME280;16074;42.708;23.312;2023-04-05T09:44:50;139287.09;;;4.04;93.13
788;BME280;16074;42.708;23.312;2023-04-05T09:47:20;139314.59;;;4.15;92.02
788;BME280;16074;42.708;23.312;2023-04-05T09:49:52;139324.16;;;4.19;91.10
788;BME280;16074;42.708;23.312;2023-04-05T09:52:22;139300.25;;;4.09;89.08
788;BME280;16074;42.708;23.312;2023-04-05T09:54:54;139345.72;;;4.28;89.93
788;BME280;16074;42.708;23.312;2023-04-05T09:57:22;139294.28;;;4.07;87.83
788;BME280;16074;42.708;23.312;2023-04-05T09:59:52;139263.16;;;3.94;87.46
788;BME280;16074;42.708;23.312;2023-04-05T10:02:21;139252.41;;;3.89;86.60
788;BME280;16074;42.708;23.312;2023-04-05T10:04:50;139194.97;;;3.65;86.50
788;BME280;16074;42.708;23.312;2023-04-05T10:07:18;139187.81;;;3.62;85.84
788;BME280;16074;42.708;23.312;2023-04-05T10:09:47;139204.56;;;3.69;84.99
788;BME280;16074;42.708;23.312;2023-04-05T10:12:25;139222.47;;;3.77;84.79
788;BME280;16074;42.708;23.312;2023-04-05T10:14:54;139247.63;;;3.87;83.40
788;BME280;16074;42.708;23.312;2023-04-05T10:17:26;139266.78;;;3.95;82.97
788;BME280;16074;42.708;23.312;2023-04-05T10:20:05;139331.34;;;4.22;84.90
788;BME280;16074;42.708;23.312;2023-04-05T10:22:40;139290.66;;;4.05;81.87
788;BME280;16074;42.708;23.312;2023-04-05T10:25:20;139306.25;;;4.12;83.89
788;BME280;16074;42.708;23.312;2023-04-05T10:28:00;139392.38;;;4.48;84.17
788;BME280;16074;42.708;23.312;2023-04-05T10:30:34;139457.06;;;4.74;81.56
788;BME280;16074;42.708;23.312;2023-04-05T10:33:09;139519.31;;;5.00;81.88
788;BME280;16074;42.708;23.312;2023-04-05T10:35:45;139448.66;;;4.71;78.33
788;BME280;16074;42.708;23.312;2023-04-05T10:38:21;139479.78;;;4.84;78.19
788;BME280;16074;42.708;23.312;2023-04-05T10:40:53;139527.72;;;5.04;77.26
788;BME280;16074;42.708;23.312;2023-04-05T10:43:24;139521.69;;;5.01;77.35
788;BME280;16074;42.708;23.312;2023-04-05T10:45:53;139526.50;;;5.03;75.22
788;BME280;16074;42.708;23.312;2023-04-05T10:48:32;139623.53;;;5.44;75.31
788;BME280;16074;42.708;23.312;2023-04-05T10:51:02;139562.44;;;5.18;72.68
788;BME280;16074;42.708;23.312;2023-04-05T10:53:30;139581.59;;;5.26;72.95
788;BME280;16074;42.708;23.312;2023-04-05T10:56:00;139405.59;;;4.53;73.58
788;BME280;16074;42.708;23.312;2023-04-05T10:58:31;139306.25;;;4.12;76.81
788;BME280;16074;42.708;23.312;2023-04-05T11:01:01;139312.19;;;4.14;77.04
788;BME280;16074;42.708;23.312;2023-04-05T11:03:47;139384.03;;;4.44;76.35
788;BME280;16074;42.708;23.312;2023-04-05T11:06:20;139319.38;;;4.17;75.66
788;BME280;16074;42.708;23.312;2023-04-05T11:08:50;139321.78;;;4.18;76.93
788;BME280;16074;42.708;23.312;2023-04-05T11:11:21;139381.63;;;4.43;75.05
788;BME280;16074;42.708;23.312;2023-04-05T11:13:53;139440.28;;;4.68;73.91
788;BME280;16074;42.708;23.312;2023-04-05T11:16:22;139498.97;;;4.92;73.01
788;BME280;16074;42.708;23.312;2023-04-05T11:18:51;139622.31;;;5.43;74.65
788;BME280;16074;42.708;23.312;2023-04-05T11:21:22;139633.13;;;5.48;69.57
788;BME280;16074;42.708;23.312;2023-04-05T11:24:05;139695.41;;;5.74;68.20
788;BME280;16074;42.708;23.312;2023-04-05T11:26:53;139756.56;;;5.99;67.59
788;BME280;16074;42.708;23.312;2023-04-05T11:29:48;139724.22;;;5.86;65.61
788;BME280;16074;42.708;23.312;2023-04-05T11:32:21;139706.25;;;5.78;66.43
788;BME280;16074;42.708;23.312;2023-04-05T11:35:04;139718.25;;;5.83;63.59
788;BME280;16074;42.708;23.312;2023-04-05T11:37:52;139856.09;;;6.40;63.55
788;BME280;16074;42.708;23.312;2023-04-05T11:40:25;139996.47;;;6.99;62.55
788;BME280;16074;42.708;23.312;2023-04-05T11:42:59;140109.28;;;7.45;60.10
788;BME280;16074;42.708;23.312;2023-04-05T11:45:30;140180.13;;;7.75;60.75
788;BME280;16074;42.708;23.312;2023-04-05T11:47:59;140160.91;;;7.67;59.07
788;BME280;16074;42.708;23.312;2023-04-05T11:50:28;140121.31;;;7.50;58.66
788;BME280;16074;42.708;23.312;2023-04-05T11:53:07;140085.28;;;7.35;60.48
788;BME280;16074;42.708;23.312;2023-04-05T11:55:36;140033.66;;;7.14;59.58
788;BME280;16074;42.708;23.312;2023-04-05T11:58:12;140112.88;;;7.47;59.53
788;BME280;16074;42.708;23.312;2023-04-05T12:00:44;140064.88;;;7.27;58.83
788;BME280;16074;42.708;23.312;2023-04-05T12:03:13;140202.94;;;7.84;60.40
788;BME280;16074;42.708;23.312;2023-04-05T12:05:46;140283.47;;;8.18;58.25
788;BME280;16074;42.708;23.312;2023-04-05T12:08:15;140128.50;;;7.53;57.21
788;BME280;16074;42.708;23.312;2023-04-05T12:10:45;140162.09;;;7.67;60.66
788;BME280;16074;42.708;23.312;2023-04-05T12:13:25;140135.72;;;7.56;60.19
788;BME280;16074;42.708;23.312;2023-04-05T12:15:56;140007.25;;;7.03;62.64
788;BME280;16074;42.708;23.312;2023-04-05T12:18:26;139841.72;;;6.34;64.10
788;BME280;16074;42.708;23.312;2023-04-05T12:20:54;139922.06;;;6.68;66.39
788;BME280;16074;42.708;23.312;2023-04-05T12:23:24;139657.09;;;5.58;66.75
788;BME280;16074;42.708;23.312;2023-04-05T12:25:53;139673.88;;;5.65;68.15
788;BME280;16074;42.708;23.312;2023-04-05T12:28:22;139717.03;;;5.83;68.31
788;BME280;16074;42.708;23.312;2023-04-05T12:30:51;139714.63;;;5.82;69.58
788;BME280;16074;42.708;23.312;2023-04-05T12:33:29;139688.22;;;5.71;70.19
788;BME280;16074;42.708;23.312;2023-04-05T12:36:03;139641.47;;;5.51;71.66
788;BME280;16074;42.708;23.312;2023-04-05T12:38:32;139645.09;;;5.53;70.83
788;BME280;16074;42.708;23.312;2023-04-05T12:41:01;139676.25;;;5.66;70.97
788;BME280;16074;42.708;23.312;2023-04-05T12:43:37;139719.44;;;5.84;72.40
788;BME280;16074;42.708;23.312;2023-04-05T12:46:08;139682.25;;;5.68;71.31
788;BME280;16074;42.708;23.312;2023-04-05T12:48:40;139573.19;;;5.23;72.37
788;BME280;16074;42.708;23.312;2023-04-05T12:51:13;139549.22;;;5.13;73.29
788;BME280;16074;42.708;23.312;2023-04-05T12:53:46;139542.09;;;5.10;73.55
788;BME280;16074;42.708;23.312;2023-04-05T12:56:15;139558.81;;;5.17;71.72
788;BME280;16074;42.708;23.312;2023-04-05T12:58:47;139527.72;;;5.04;70.36
788;BME280;16074;42.708;23.312;2023-04-05T13:01:16;139470.22;;;4.80;70.38
788;BME280;16074;42.708;23.312;2023-04-05T13:03:47;139466.63;;;4.78;70.48
788;BME280;16074;42.708;23.312;2023-04-05T13:06:19;139479.78;;;4.84;70.25
788;BME280;16074;42.708;23.312;2023-04-05T13:08:47;139443.88;;;4.69;70.19
788;BME280;16074;42.708;23.312;2023-04-05T13:11:15;139372.06;;;4.39;70.80
788;BME280;16074;42.708;23.312;2023-04-05T13:13:44;139400.78;;;4.51;72.96
788;BME280;16074;42.708;23.312;2023-04-05T13:16:12;139387.59;;;4.46;71.26
788;BME280;16074;42.708;23.312;2023-04-05T13:18:40;139428.31;;;4.63;72.45
788;BME280;16074;42.708;23.312;2023-04-05T13:21:10;139437.91;;;4.67;71.98
788;BME280;16074;42.708;23.312;2023-04-05T13:23:39;139435.50;;;4.66;72.28
788;BME280;16074;42.708;23.312;2023-04-05T13:26:07;139441.47;;;4.68;72.93
788;BME280;16074;42.708;23.312;2023-04-05T13:28:35;139486.97;;;4.87;71.19